sensor_id;sensor_type;location;lat;lon;timestamp;temperature;humidity
64468;DHT22;50853;46.836;16.820;2023-11-21T00:01:27;11.40;78.20
64468;DHT22;50853;46.836;16.820;2023-11-21T00:03:53;11.40;78.30
64468;DHT22;50853;46.836;16.820;2023-11-21T00:06:21;11.40;78.30
64468;DHT22;50853;46.836;16.820;2023-11-21T00:08:46;11.40;78.30
64468;DHT22;50853;46.836;16.820;2023-11-21T00:11:12;11.40;77.90
64468;DHT22;50853;46.836;16.820;2023-11-21T00:13:38;11.40;78.30
64468;DHT22;50853;46.836;16.820;2023-11-21T00:16:04;11.40;78.20
64468;DHT22;50853;46.836;16.820;2023-11-21T00:18:30;11.40;78.30
64468;DHT22;50853;46.836;16.820;2023-11-21T00:20:56;11.40;78.30
64468;DHT22;50853;46.836;16.820;2023-11-21T00:23:24;11.40;78.40
64468;DHT22;50853;46.836;16.820;2023-11-21T00:25:50;11.40;78.30
64468;DHT22;50853;46.836;16.820;2023-11-21T00:28:16;11.40;78.80
64468;DHT22;50853;46.836;16.820;2023-11-21T00:30:42;11.40;78.30
64468;DHT22;50853;46.836;16.820;2023-11-21T00:33:08;11.40;78.40
64468;DHT22;50853;46.836;16.820;2023-11-21T00:35:34;11.40;78.40
64468;DHT22;50853;46.836;16.820;2023-11-21T00:37:59;11.30;78.40
64468;DHT22;50853;46.836;16.820;2023-11-21T00:40:25;11.30;78.30
64468;DHT22;50853;46.836;16.820;2023-11-21T00:42:51;11.30;78.40
64468;DHT22;50853;46.836;16.820;2023-11-21T00:45:17;11.30;78.40
64468;DHT22;50853;46.836;16.820;2023-11-21T00:47:43;11.30;78.30
64468;DHT22;50853;46.836;16.820;2023-11-21T00:50:09;11.30;78.40
64468;DHT22;50853;46.836;16.820;2023-11-21T00:52:35;11.30;78.50
64468;DHT22;50853;46.836;16.820;2023-11-21T00:55:02;11.30;78.40
64468;DHT22;50853;46.836;16.820;2023-11-21T00:57:28;11.30;78.70
64468;DHT22;50853;46.836;16.820;2023-11-21T00:59:55;11.30;78.50
64468;DHT22;50853;46.836;16.820;2023-11-21T01:02:21;11.30;78.50
64468;DHT22;50853;46.836;16.820;2023-11-21T01:04:46;11.30;78.40
64468;DHT22;50853;46.836;16.820;2023-11-21T01:07:13;11.30;78.60
64468;DHT22;50853;46.836;16.820;2023-11-21T01:09:39;11.30;78.50
64468;DHT22;50853;46.836;16.820;2023-11-21T01:12:05;11.30;78.60
64468;DHT22;50853;46.836;16.820;2023-11-21T01:14:31;11.30;78.50
64468;DHT22;50853;46.836;16.820;2023-11-21T01:16:56;11.30;78.50
64468;DHT22;50853;46.836;16.820;2023-11-21T01:19:22;11.30;78.50
64468;DHT22;50853;46.836;16.820;2023-11-21T01:21:48;11.30;78.60
64468;DHT22;50853;46.836;16.820;2023-11-21T01:24:14;11.30;78.60
64468;DHT22;50853;46.836;16.820;2023-11-21T01:26:40;11.30;78.60
64468;DHT22;50853;46.836;16.820;2023-11-21T01:29:06;11.30;78.50
64468;DHT22;50853;46.836;16.820;2023-11-21T01:31:32;11.30;78.60
64468;DHT22;50853;46.836;16.820;2023-11-21T01:33:57;11.30;78.60
64468;DHT22;50853;46.836;16.820;2023-11-21T01:36:30;11.30;78.50
64468;DHT22;50853;46.836;16.820;2023-11-21T01:38:57;11.30;78.50
64468;DHT22;50853;46.836;16.820;2023-11-21T01:41:26;11.30;78.60
64468;DHT22;50853;46.836;16.820;2023-11-21T01:43:52;11.20;78.60
64468;DHT22;50853;46.836;16.820;2023-11-21T01:46:20;11.20;78.60
64468;DHT22;50853;46.836;16.820;2023-11-21T01:48:47;11.20;78.60
64468;DHT22;50853;46.836;16.820;2023-11-21T01:51:13;11.20;78.60
64468;DHT22;50853;46.836;16.820;2023-11-21T01:53:40;11.20;78.50
64468;DHT22;50853;46.836;16.820;2023-11-21T01:56:07;11.20;78.60
64468;DHT22;50853;46.836;16.820;2023-11-21T01:58:34;11.20;78.60
64468;DHT22;50853;46.836;16.820;2023-11-21T02:01:00;11.20;78.50
64468;DHT22;50853;46.836;16.820;2023-11-21T02:03:26;11.20;78.60
64468;DHT22;50853;46.836;16.820;2023-11-21T02:05:53;11.20;78.50
64468;DHT22;50853;46.836;16.820;2023-11-21T02:08:19;11.20;78.60
64468;DHT22;50853;46.836;16.820;2023-11-21T02:10:45;11.20;78.60
64468;DHT22;50853;46.836;16.820;2023-11-21T02:13:11;11.20;78.50
64468;DHT22;50853;46.836;16.820;2023-11-21T02:15:37;11.20;78.50
64468;DHT22;50853;46.836;16.820;2023-11-21T02:18:04;11.20;78.60
64468;DHT22;50853;46.836;16.820;2023-11-21T02:20:32;11.20;78.60
64468;DHT22;50853;46.836;16.820;2023-11-21T02:23:00;11.20;78.60
64468;DHT22;50853;46.836;16.820;2023-11-21T02:25:31;11.20;78.60
64468;DHT22;50853;46.836;16.820;2023-11-21T02:27:59;11.20;78.50
64468;DHT22;50853;46.836;16.820;2023-11-21T02:30:26;11.20;78.60
64468;DHT22;50853;46.836;16.820;2023-11-21T02:32:59;11.20;78.50
64468;DHT22;50853;46.836;16.820;2023-11-21T02:35:26;11.20;78.50
64468;DHT22;50853;46.836;16.820;2023-11-21T02:37:52;11.20;78.50
64468;DHT22;50853;46.836;16.820;2023-11-21T02:40:18;11.20;78.60
64468;DHT22;50853;46.836;16.820;2023-11-21T02:42:46;11.20;78.60
64468;DHT22;50853;46.836;16.820;2023-11-21T02:45:14;11.20;78.60
64468;DHT22;50853;46.836;16.820;2023-11-21T02:47:42;11.20;78.50
64468;DHT22;50853;46.836;16.820;2023-11-21T02:50:09;11.20;78.40
64468;DHT22;50853;46.836;16.820;2023-11-21T02:52:35;11.20;78.60
64468;DHT22;50853;46.836;16.820;2023-11-21T02:55:04;11.20;78.60
64468;DHT22;50853;46.836;16.820;2023-11-21T02:57:30;11.20;78.60
64468;DHT22;50853;46.836;16.820;2023-11-21T02:59:56;11.20;78.60
64468;DHT22;50853;46.836;16.820;2023-11-21T03:02:22;11.20;78.60
64468;DHT22;50853;46.836;16.820;2023-11-21T03:04:49;11.20;78.70
64468;DHT22;50853;46.836;16.820;2023-11-21T03:07:15;11.20;78.60
64468;DHT22;50853;46.836;16.820;2023-11-21T03:09:41;11.20;78.60
64468;DHT22;50853;46.836;16.820;2023-11-21T03:12:08;11.20;79.00
64468;DHT22;50853;46.836;16.820;2023-11-21T03:14:34;11.20;78.60
64468;DHT22;50853;46.836;16.820;2023-11-21T03:17:00;11.20;78.50
64468;DHT22;50853;46.836;16.820;2023-11-21T03:19:26;11.20;78.50
64468;DHT22;50853;46.836;16.820;2023-11-21T03:21:52;11.20;78.50
64468;DHT22;50853;46.836;16.820;2023-11-21T03:24:19;11.20;78.50
64468;DHT22;50853;46.836;16.820;2023-11-21T03:26:48;11.20;78.50
64468;DHT22;50853;46.836;16.820;2023-11-21T03:29:14;11.20;78.60
64468;DHT22;50853;46.836;16.820;2023-11-21T03:31:40;11.20;78.60
64468;DHT22;50853;46.836;16.820;2023-11-21T03:34:09;11.20;78.60
64468;DHT22;50853;46.836;16.820;2023-11-21T03:36:35;11.10;78.50
64468;DHT22;50853;46.836;16.820;2023-11-21T03:39:02;11.10;78.70
64468;DHT22;50853;46.836;16.820;2023-11-21T03:41:28;11.20;78.70
64468;DHT22;50853;46.836;16.820;2023-11-21T03:43:53;11.10;78.70
64468;DHT22;50853;46.836;16.820;2023-11-21T03:46:19;11.10;78.60
64468;DHT22;50853;46.836;16.820;2023-11-21T03:48:45;11.20;78.70
64468;DHT22;50853;46.836;16.820;2023-11-21T03:51:11;11.20;78.70
64468;DHT22;50853;46.836;16.820;2023-11-21T03:53:36;11.20;78.60
64468;DHT22;50853;46.836;16.820;2023-11-21T03:56:03;11.20;78.60
64468;DHT22;50853;46.836;16.820;2023-11-21T03:58:29;11.20;78.60
64468;DHT22;50853;46.836;16.820;2023-11-21T04:00:55;11.20;78.60
64468;DHT22;50853;46.836;16.820;2023-11-21T04:03:21;11.10;78.50
64468;DHT22;50853;46.836;16.820;2023-11-21T04:05:47;11.10;78.60
64468;DHT22;50853;46.836;16.820;2023-11-21T04:08:12;11.10;78.60
64468;DHT22;50853;46.836;16.820;2023-11-21T04:10:38;11.10;78.70
64468;DHT22;50853;46.836;16.820;2023-11-21T04:13:05;11.10;78.60
64468;DHT22;50853;46.836;16.820;2023-11-21T04:15:32;11.10;78.70
64468;DHT22;50853;46.836;16.820;2023-11-21T04:17:58;11.20;78.70
64468;DHT22;50853;46.836;16.820;2023-11-21T04:20:24;11.10;78.70
64468;DHT22;50853;46.836;16.820;2023-11-21T04:22:50;11.20;78.40
64468;DHT22;50853;46.836;16.820;2023-11-21T04:25:16;11.10;78.50
64468;DHT22;50853;46.836;16.820;2023-11-21T04:27:44;11.10;78.30
64468;DHT22;50853;46.836;16.820;2023-11-21T04:30:12;11.20;78.40
64468;DHT22;50853;46.836;16.820;2023-11-21T04:32:38;11.10;78.30
64468;DHT22;50853;46.836;16.820;2023-11-21T04:35:05;11.10;78.40
64468;DHT22;50853;46.836;16.820;2023-11-21T04:37:31;11.10;78.30
64468;DHT22;50853;46.836;16.820;2023-11-21T04:39:56;11.10;78.30
64468;DHT22;50853;46.836;16.820;2023-11-21T04:42:22;11.10;78.30
64468;DHT22;50853;46.836;16.820;2023-11-21T04:44:49;11.10;78.30
64468;DHT22;50853;46.836;16.820;2023-11-21T04:47:15;11.10;78.00
64468;DHT22;50853;46.836;16.820;2023-11-21T04:49:43;11.10;78.20
64468;DHT22;50853;46.836;16.820;2023-11-21T04:52:12;11.10;78.20
64468;DHT22;50853;46.836;16.820;2023-11-21T04:54:38;11.10;78.30
64468;DHT22;50853;46.836;16.820;2023-11-21T04:57:05;11.10;78.30
64468;DHT22;50853;46.836;16.820;2023-11-21T04:59:33;11.10;78.30
64468;DHT22;50853;46.836;16.820;2023-11-21T05:01:59;11.10;78.40
64468;DHT22;50853;46.836;16.820;2023-11-21T05:04:26;11.10;78.30
64468;DHT22;50853;46.836;16.820;2023-11-21T05:06:52;11.10;78.30
64468;DHT22;50853;46.836;16.820;2023-11-21T05:09:18;11.10;78.40
64468;DHT22;50853;46.836;16.820;2023-11-21T05:11:44;11.10;78.40
64468;DHT22;50853;46.836;16.820;2023-11-21T05:14:09;11.10;78.50
64468;DHT22;50853;46.836;16.820;2023-11-21T05:16:35;11.10;78.30
64468;DHT22;50853;46.836;16.820;2023-11-21T05:19:02;11.10;78.30
64468;DHT22;50853;46.836;16.820;2023-11-21T05:21:29;11.10;78.20
64468;DHT22;50853;46.836;16.820;2023-11-21T05:23:58;11.10;78.20
64468;DHT22;50853;46.836;16.820;2023-11-21T05:26:24;11.10;78.30
64468;DHT22;50853;46.836;16.820;2023-11-21T05:28:50;11.10;78.20
64468;DHT22;50853;46.836;16.820;2023-11-21T05:31:15;11.10;78.30
64468;DHT22;50853;46.836;16.820;2023-11-21T05:33:41;11.10;78.30
64468;DHT22;50853;46.836;16.820;2023-11-21T05:36:08;11.10;78.20
64468;DHT22;50853;46.836;16.820;2023-11-21T05:38:36;11.10;78.20
64468;DHT22;50853;46.836;16.820;2023-11-21T05:41:02;11.10;78.30
64468;DHT22;50853;46.836;16.820;2023-11-21T05:43:29;11.10;78.20
64468;DHT22;50853;46.836;16.820;2023-11-21T05:45:56;11.10;78.20
64468;DHT22;50853;46.836;16.820;2023-11-21T05:48:22;11.10;78.20
64468;DHT22;50853;46.836;16.820;2023-11-21T05:50:49;11.10;78.20
64468;DHT22;50853;46.836;16.820;2023-11-21T05:53:15;11.10;78.30
64468;DHT22;50853;46.836;16.820;2023-11-21T05:55:42;11.10;78.30
64468;DHT22;50853;46.836;16.820;2023-11-21T05:58:08;11.10;78.40
64468;DHT22;50853;46.836;16.820;2023-11-21T06:00:34;11.10;78.40
64468;DHT22;50853;46.836;16.820;2023-11-21T06:03:00;11.10;78.40
64468;DHT22;50853;46.836;16.820;2023-11-21T06:05:26;11.10;78.50
64468;DHT22;50853;46.836;16.820;2023-11-21T06:07:54;11.10;78.50
64468;DHT22;50853;46.836;16.820;2023-11-21T06:10:21;11.10;78.60
64468;DHT22;50853;46.836;16.820;2023-11-21T06:12:47;11.10;78.50
64468;DHT22;50853;46.836;16.820;2023-11-21T06:15:13;11.10;78.70
64468;DHT22;50853;46.836;16.820;2023-11-21T06:17:40;11.10;78.60
64468;DHT22;50853;46.836;16.820;2023-11-21T06:20:10;11.10;78.60
64468;DHT22;50853;46.836;16.820;2023-11-21T06:22:41;11.10;78.60
64468;DHT22;50853;46.836;16.820;2023-11-21T06:25:08;11.10;78.60
64468;DHT22;50853;46.836;16.820;2023-11-21T06:27:54;11.10;78.70
64468;DHT22;50853;46.836;16.820;2023-11-21T06:30:20;11.10;78.70
64468;DHT22;50853;46.836;16.820;2023-11-21T06:32:47;11.10;78.70
64468;DHT22;50853;46.836;16.820;2023-11-21T06:35:13;11.10;78.80
64468;DHT22;50853;46.836;16.820;2023-11-21T06:37:39;11.10;78.70
64468;DHT22;50853;46.836;16.820;2023-11-21T06:40:05;11.10;78.70
64468;DHT22;50853;46.836;16.820;2023-11-21T06:42:32;11.10;78.60
64468;DHT22;50853;46.836;16.820;2023-11-21T06:44:59;11.10;78.70
64468;DHT22;50853;46.836;16.820;2023-11-21T06:47:29;11.10;78.80
64468;DHT22;50853;46.836;16.820;2023-11-21T06:49:56;11.10;78.70
64468;DHT22;50853;46.836;16.820;2023-11-21T06:52:23;11.10;78.70
64468;DHT22;50853;46.836;16.820;2023-11-21T06:54:48;11.10;78.70
64468;DHT22;50853;46.836;16.820;2023-11-21T06:57:17;11.10;78.80
64468;DHT22;50853;46.836;16.820;2023-11-21T06:59:44;11.10;78.60
64468;DHT22;50853;46.836;16.820;2023-11-21T07:02:09;11.10;78.70
64468;DHT22;50853;46.836;16.820;2023-11-21T07:04:36;11.10;78.70
64468;DHT22;50853;46.836;16.820;2023-11-21T07:07:03;11.00;78.50
64468;DHT22;50853;46.836;16.820;2023-11-21T07:09:29;11.10;78.70
64468;DHT22;50853;46.836;16.820;2023-11-21T07:11:56;11.10;78.70
64468;DHT22;50853;46.836;16.820;2023-11-21T07:14:22;11.10;78.70
64468;DHT22;50853;46.836;16.820;2023-11-21T07:16:48;11.00;78.60
64468;DHT22;50853;46.836;16.820;2023-11-21T07:19:14;11.00;78.70
64468;DHT22;50853;46.836;16.820;2023-11-21T07:21:40;11.00;78.60
64468;DHT22;50853;46.836;16.820;2023-11-21T07:24:07;11.10;78.60
64468;DHT22;50853;46.836;16.820;2023-11-21T07:26:34;11.10;78.70
64468;DHT22;50853;46.836;16.820;2023-11-21T07:29:01;11.00;78.60
64468;DHT22;50853;46.836;16.820;2023-11-21T07:31:28;11.10;78.70
64468;DHT22;50853;46.836;16.820;2023-11-21T07:33:54;11.00;78.80
64468;DHT22;50853;46.836;16.820;2023-11-21T07:36:23;11.10;78.80
64468;DHT22;50853;46.836;16.820;2023-11-21T07:38:49;11.00;78.90
64468;DHT22;50853;46.836;16.820;2023-11-21T07:41:15;11.00;78.80
64468;DHT22;50853;46.836;16.820;2023-11-21T07:43:42;11.00;78.90
64468;DHT22;50853;46.836;16.820;2023-11-21T07:46:08;11.10;78.80
64468;DHT22;50853;46.836;16.820;2023-11-21T07:48:34;11.10;78.90
64468;DHT22;50853;46.836;16.820;2023-11-21T07:51:02;11.00;78.80
64468;DHT22;50853;46.836;16.820;2023-11-21T07:53:31;11.00;78.90
64468;DHT22;50853;46.836;16.820;2023-11-21T07:55:58;11.10;78.90
64468;DHT22;50853;46.836;16.820;2023-11-21T07:58:23;11.00;78.90
64468;DHT22;50853;46.836;16.820;2023-11-21T08:00:50;11.00;78.90
64468;DHT22;50853;46.836;16.820;2023-11-21T08:03:16;11.00;78.90
64468;DHT22;50853;46.836;16.820;2023-11-21T08:05:42;11.10;78.80
64468;DHT22;50853;46.836;16.820;2023-11-21T08:08:09;11.00;78.80
64468;DHT22;50853;46.836;16.820;2023-11-21T08:10:34;11.00;78.90
64468;DHT22;50853;46.836;16.820;2023-11-21T08:13:04;11.00;78.80
64468;DHT22;50853;46.836;16.820;2023-11-21T08:15:30;11.00;78.80
64468;DHT22;50853;46.836;16.820;2023-11-21T08:17:59;11.10;78.80
64468;DHT22;50853;46.836;16.820;2023-11-21T08:20:25;11.00;78.90
64468;DHT22;50853;46.836;16.820;2023-11-21T08:22:51;11.00;78.80
64468;DHT22;50853;46.836;16.820;2023-11-21T08:25:21;11.10;78.80
64468;DHT22;50853;46.836;16.820;2023-11-21T08:27:47;11.00;78.90
64468;DHT22;50853;46.836;16.820;2023-11-21T08:30:14;11.00;78.80
64468;DHT22;50853;46.836;16.820;2023-11-21T08:32:40;11.00;78.90
64468;DHT22;50853;46.836;16.820;2023-11-21T08:35:07;11.00;78.80
64468;DHT22;50853;46.836;16.820;2023-11-21T08:37:34;11.00;78.70
64468;DHT22;50853;46.836;16.820;2023-11-21T08:40:03;11.00;78.80
64468;DHT22;50853;46.836;16.820;2023-11-21T08:42:29;11.00;78.70
64468;DHT22;50853;46.836;16.820;2023-11-21T08:44:58;11.00;78.80
64468;DHT22;50853;46.836;16.820;2023-11-21T08:47:24;11.00;78.90
64468;DHT22;50853;46.836;16.820;2023-11-21T08:49:50;11.00;78.90
64468;DHT22;50853;46.836;16.820;2023-11-21T08:52:19;11.00;78.90
64468;DHT22;50853;46.836;16.820;2023-11-21T08:54:51;11.00;78.90
64468;DHT22;50853;46.836;16.820;2023-11-21T08:57:22;11.00;78.90
64468;DHT22;50853;46.836;16.820;2023-11-21T08:59:48;11.00;78.90
64468;DHT22;50853;46.836;16.820;2023-11-21T09:02:14;11.00;78.90
64468;DHT22;50853;46.836;16.820;2023-11-21T09:04:40;11.00;78.90
64468;DHT22;50853;46.836;16.820;2023-11-21T09:07:05;11.00;79.10
64468;DHT22;50853;46.836;16.820;2023-11-21T09:09:31;11.00;78.90
64468;DHT22;50853;46.836;16.820;2023-11-21T09:11:57;11.00;79.00
64468;DHT22;50853;46.836;16.820;2023-11-21T09:14:23;11.00;79.00
64468;DHT22;50853;46.836;16.820;2023-11-21T09:16:49;11.00;79.00
64468;DHT22;50853;46.836;16.820;2023-11-21T09:19:16;11.00;79.00
64468;DHT22;50853;46.836;16.820;2023-11-21T09:21:42;11.00;79.10
64468;DHT22;50853;46.836;16.820;2023-11-21T09:24:08;11.00;79.10
64468;DHT22;50853;46.836;16.820;2023-11-21T09:26:34;11.00;79.10
64468;DHT22;50853;46.836;16.820;2023-11-21T09:29:00;11.00;78.90
64468;DHT22;50853;46.836;16.820;2023-11-21T09:31:27;11.00;79.00
64468;DHT22;50853;46.836;16.820;2023-11-21T09:33:53;11.00;79.00
64468;DHT22;50853;46.836;16.820;2023-11-21T09:36:19;11.00;79.00
64468;DHT22;50853;46.836;16.820;2023-11-21T09:38:47;11.00;79.00
64468;DHT22;50853;46.836;16.820;2023-11-21T09:41:30;11.00;79.00
64468;DHT22;50853;46.836;16.820;2023-11-21T09:44:03;11.00;79.00
64468;DHT22;50853;46.836;16.820;2023-11-21T09:46:33;11.00;79.00
64468;DHT22;50853;46.836;16.820;2023-11-21T09:49:00;11.00;79.10
64468;DHT22;50853;46.836;16.820;2023-11-21T09:51:29;11.00;79.00
64468;DHT22;50853;46.836;16.820;2023-11-21T09:53:59;11.00;79.00
64468;DHT22;50853;46.836;16.820;2023-11-21T09:56:27;11.00;79.10
64468;DHT22;50853;46.836;16.820;2023-11-21T09:58:55;11.00;79.10
64468;DHT22;50853;46.836;16.820;2023-11-21T10:01:23;11.00;79.10
64468;DHT22;50853;46.836;16.820;2023-11-21T10:03:51;11.00;79.10
64468;DHT22;50853;46.836;16.820;2023-11-21T10:06:18;11.00;79.20
64468;DHT22;50853;46.836;16.820;2023-11-21T10:08:44;11.00;79.20
64468;DHT22;50853;46.836;16.820;2023-11-21T10:11:11;11.00;79.20
64468;DHT22;50853;46.836;16.820;2023-11-21T10:13:38;11.00;79.20
64468;DHT22;50853;46.836;16.820;2023-11-21T10:16:07;11.00;79.10
64468;DHT22;50853;46.836;16.820;2023-11-21T10:18:38;11.00;79.20
64468;DHT22;50853;46.836;16.820;2023-11-21T10:21:06;11.00;79.30
64468;DHT22;50853;46.836;16.820;2023-11-21T10:23:32;11.00;79.30
64468;DHT22;50853;46.836;16.820;2023-11-21T10:25:59;11.00;79.20
64468;DHT22;50853;46.836;16.820;2023-11-21T10:28:25;11.00;79.30
64468;DHT22;50853;46.836;16.820;2023-11-21T10:30:51;11.00;79.30
64468;DHT22;50853;46.836;16.820;2023-11-21T10:33:27;11.00;79.40
64468;DHT22;50853;46.836;16.820;2023-11-21T10:35:53;11.00;79.40
64468;DHT22;50853;46.836;16.820;2023-11-21T10:38:21;11.00;79.40
64468;DHT22;50853;46.836;16.820;2023-11-21T10:40:49;11.00;79.50
64468;DHT22;50853;46.836;16.820;2023-11-21T10:43:15;11.00;79.50
64468;DHT22;50853;46.836;16.820;2023-11-21T10:45:42;11.00;79.50
64468;DHT22;50853;46.836;16.820;2023-11-21T10:48:09;11.00;79.50
64468;DHT22;50853;46.836;16.820;2023-11-21T10:50:43;11.00;79.60
64468;DHT22;50853;46.836;16.820;2023-11-21T10:53:09;11.00;79.50
64468;DHT22;50853;46.836;16.820;2023-11-21T10:55:37;11.00;79.50
64468;DHT22;50853;46.836;16.820;2023-11-21T10:58:04;11.00;79.60
64468;DHT22;50853;46.836;16.820;2023-11-21T11:00:32;11.00;79.60
64468;DHT22;50853;46.836;16.820;2023-11-21T11:02:58;11.00;79.60
64468;DHT22;50853;46.836;16.820;2023-11-21T11:05:27;11.00;79.60
64468;DHT22;50853;46.836;16.820;2023-11-21T11:08:07;11.00;79.60
64468;DHT22;50853;46.836;16.820;2023-11-21T11:10:34;11.10;79.60
64468;DHT22;50853;46.836;16.820;2023-11-21T11:13:00;11.00;79.60
64468;DHT22;50853;46.836;16.820;2023-11-21T11:15:27;11.00;79.60
64468;DHT22;50853;46.836;16.820;2023-11-21T11:17:54;11.00;79.70
64468;DHT22;50853;46.836;16.820;2023-11-21T11:20:32;11.00;79.60
64468;DHT22;50853;46.836;16.820;2023-11-21T11:26:18;11.00;79.70
64468;DHT22;50853;46.836;16.820;2023-11-21T11:34:36;11.00;79.60
64468;DHT22;50853;46.836;16.820;2023-11-21T11:37:06;11.00;79.70
64468;DHT22;50853;46.836;16.820;2023-11-21T11:39:39;11.00;80.20
64468;DHT22;50853;46.836;16.820;2023-11-21T11:42:16;11.10;79.70
64468;DHT22;50853;46.836;16.820;2023-11-21T11:47:22;11.00;79.70
64468;DHT22;50853;46.836;16.820;2023-11-21T11:55:03;11.10;79.80
64468;DHT22;50853;46.836;16.820;2023-11-21T11:57:30;11.10;79.80
64468;DHT22;50853;46.836;16.820;2023-11-21T12:00:33;11.10;80.00
64468;DHT22;50853;46.836;16.820;2023-11-21T12:03:03;11.00;79.90
64468;DHT22;50853;46.836;16.820;2023-11-21T12:05:33;11.00;80.00
64468;DHT22;50853;46.836;16.820;2023-11-21T12:08:07;11.10;80.00
64468;DHT22;50853;46.836;16.820;2023-11-21T12:10:36;11.00;80.00
64468;DHT22;50853;46.836;16.820;2023-11-21T12:13:05;11.00;80.20
64468;DHT22;50853;46.836;16.820;2023-11-21T12:15:34;11.00;80.10
64468;DHT22;50853;46.836;16.820;2023-11-21T12:18:00;11.00;80.10
64468;DHT22;50853;46.836;16.820;2023-11-21T12:20:27;11.10;80.30
64468;DHT22;50853;46.836;16.820;2023-11-21T12:22:57;11.00;80.20
64468;DHT22;50853;46.836;16.820;2023-11-21T12:25:27;11.00;80.30
64468;DHT22;50853;46.836;16.820;2023-11-21T12:27:55;11.00;80.20
64468;DHT22;50853;46.836;16.820;2023-11-21T12:30:27;11.00;80.30
64468;DHT22;50853;46.836;16.820;2023-11-21T12:32:58;11.00;80.20
64468;DHT22;50853;46.836;16.820;2023-11-21T12:35:24;11.10;80.20
64468;DHT22;50853;46.836;16.820;2023-11-21T12:37:51;11.00;80.40
64468;DHT22;50853;46.836;16.820;2023-11-21T12:40:18;11.00;80.40
64468;DHT22;50853;46.836;16.820;2023-11-21T12:42:48;11.10;80.40
64468;DHT22;50853;46.836;16.820;2023-11-21T12:45:21;11.00;80.30
64468;DHT22;50853;46.836;16.820;2023-11-21T12:47:49;11.00;80.40
64468;DHT22;50853;46.836;16.820;2023-11-21T12:50:19;11.00;80.40
64468;DHT22;50853;46.836;16.820;2023-11-21T12:52:50;11.00;80.50
64468;DHT22;50853;46.836;16.820;2023-11-21T12:55:22;11.00;80.40
64468;DHT22;50853;46.836;16.820;2023-11-21T12:57:53;11.10;81.30
64468;DHT22;50853;46.836;16.820;2023-11-21T13:00:34;11.10;81.00
64468;DHT22;50853;46.836;16.820;2023-11-21T13:03:07;11.10;80.30
64468;DHT22;50853;46.836;16.820;2023-11-21T13:05:34;11.10;78.60
64468;DHT22;50853;46.836;16.820;2023-11-21T13:08:02;11.10;78.50
64468;DHT22;50853;46.836;16.820;2023-11-21T13:10:31;11.10;78.50
64468;DHT22;50853;46.836;16.820;2023-11-21T13:12:59;11.10;78.50
64468;DHT22;50853;46.836;16.820;2023-11-21T13:15:29;11.00;78.40
64468;DHT22;50853;46.836;16.820;2023-11-21T13:17:57;11.00;78.40
64468;DHT22;50853;46.836;16.820;2023-11-21T13:20:24;11.10;79.00
64468;DHT22;50853;46.836;16.820;2023-11-21T13:22:54;11.10;80.50
64468;DHT22;50853;46.836;16.820;2023-11-21T13:25:25;11.10;81.70
64468;DHT22;50853;46.836;16.820;2023-11-21T13:27:57;11.10;82.10
64468;DHT22;50853;46.836;16.820;2023-11-21T13:30:24;11.10;82.40
64468;DHT22;50853;46.836;16.820;2023-11-21T13:33:02;11.10;81.60
64468;DHT22;50853;46.836;16.820;2023-11-21T13:35:35;11.10;82.40
64468;DHT22;50853;46.836;16.820;2023-11-21T13:38:18;11.10;82.00
64468;DHT22;50853;46.836;16.820;2023-11-21T13:40:50;11.10;82.10
64468;DHT22;50853;46.836;16.820;2023-11-21T13:43:20;11.10;81.60
64468;DHT22;50853;46.836;16.820;2023-11-21T13:45:48;11.10;81.80
64468;DHT22;50853;46.836;16.820;2023-11-21T13:48:27;11.10;81.70
64468;DHT22;50853;46.836;16.820;2023-11-21T13:51:06;11.20;82.10
64468;DHT22;50853;46.836;16.820;2023-11-21T13:53:47;11.20;82.20
64468;DHT22;50853;46.836;16.820;2023-11-21T13:56:18;11.20;82.50
64468;DHT22;50853;46.836;16.820;2023-11-21T13:58:51;11.20;83.90
64468;DHT22;50853;46.836;16.820;2023-11-21T14:01:18;11.20;84.10
64468;DHT22;50853;46.836;16.820;2023-11-21T14:04:01;11.20;83.80
64468;DHT22;50853;46.836;16.820;2023-11-21T14:06:50;11.10;83.30
64468;DHT22;50853;46.836;16.820;2023-11-21T14:09:20;11.10;83.20
64468;DHT22;50853;46.836;16.820;2023-11-21T14:11:58;11.10;83.10
64468;DHT22;50853;46.836;16.820;2023-11-21T14:14:27;11.10;83.00
64468;DHT22;50853;46.836;16.820;2023-11-21T14:16:56;11.10;83.10
64468;DHT22;50853;46.836;16.820;2023-11-21T14:19:24;11.10;82.90
64468;DHT22;50853;46.836;16.820;2023-11-21T14:21:57;11.10;83.00
64468;DHT22;50853;46.836;16.820;2023-11-21T14:24:23;11.10;82.90
64468;DHT22;50853;46.836;16.820;2023-11-21T14:26:50;11.10;82.80
64468;DHT22;50853;46.836;16.820;2023-11-21T14:29:17;11.10;82.80
64468;DHT22;50853;46.836;16.820;2023-11-21T14:31:49;11.10;82.80
64468;DHT22;50853;46.836;16.820;2023-11-21T14:34:17;11.10;82.80
64468;DHT22;50853;46.836;16.820;2023-11-21T14:36:43;11.10;82.70
64468;DHT22;50853;46.836;16.820;2023-11-21T14:39:10;11.10;82.70
64468;DHT22;50853;46.836;16.820;2023-11-21T14:41:49;11.10;82.70
64468;DHT22;50853;46.836;16.820;2023-11-21T14:44:14;11.10;82.70
64468;DHT22;50853;46.836;16.820;2023-11-21T14:46:41;11.10;82.70
64468;DHT22;50853;46.836;16.820;2023-11-21T14:49:12;11.10;82.70
64468;DHT22;50853;46.836;16.820;2023-11-21T14:51:50;11.10;82.70
64468;DHT22;50853;46.836;16.820;2023-11-21T14:54:35;11.10;82.70
64468;DHT22;50853;46.836;16.820;2023-11-21T14:57:12;11.10;82.70
64468;DHT22;50853;46.836;16.820;2023-11-21T14:59:45;11.10;82.70
64468;DHT22;50853;46.836;16.820;2023-11-21T15:02:18;11.10;82.70
64468;DHT22;50853;46.836;16.820;2023-11-21T15:04:48;11.10;83.20
64468;DHT22;50853;46.836;16.820;2023-11-21T15:07:18;11.20;82.50
64468;DHT22;50853;46.836;16.820;2023-11-21T15:09:43;11.30;83.90
64468;DHT22;50853;46.836;16.820;2023-11-21T15:12:11;11.30;84.80
64468;DHT22;50853;46.836;16.820;2023-11-21T15:14:50;11.40;85.10
64468;DHT22;50853;46.836;16.820;2023-11-21T15:17:21;11.50;86.70
64468;DHT22;50853;46.836;16.820;2023-11-21T15:19:52;11.50;88.60
64468;DHT22;50853;46.836;16.820;2023-11-21T15:22:19;11.60;90.80
64468;DHT22;50853;46.836;16.820;2023-11-21T15:24:45;11.70;91.70
64468;DHT22;50853;46.836;16.820;2023-11-21T15:27:13;11.70;92.40
64468;DHT22;50853;46.836;16.820;2023-11-21T15:29:39;11.80;92.90
64468;DHT22;50853;46.836;16.820;2023-11-21T15:32:06;12.00;93.40
64468;DHT22;50853;46.836;16.820;2023-11-21T15:34:33;12.20;94.20
64468;DHT22;50853;46.836;16.820;2023-11-21T15:36:59;12.40;95.20